Time;durP1;ratioP1;P1;durP2;ratioP2;P2;SDS_P1;SDS_P2;PMS_P1;PMS_P2;Temp;Humidity;BMP_temperature;BMP_pressure;BME280_temperature;BME280_humidity;BME280_pressure;Samples;Min_cycle;Max_cycle;Signal;HPM_P1;HPM_P2
2023/08/23 00:01:48;;;;;;;4.97;2.53;;;16.30;99.90;;;;;;4832681;29;20063;-84
2023/08/23 00:04:13;;;;;;;3.92;3.50;;;16.20;99.90;;;;;;4832512;29;20120;-84
2023/08/23 00:06:39;;;;;;;4.95;3.53;;;16.20;99.90;;;;;;4846448;29;20567;-84
2023/08/23 00:09:05;;;;;;;4.45;3.70;;;16.20;99.90;;;;;;4797514;29;20073;-84
2023/08/23 00:11:31;;;;;;;4.07;3.67;;;16.20;99.90;;;;;;4835416;29;20050;-84
2023/08/23 00:13:58;;;;;;;4.47;3.22;;;16.30;99.90;;;;;;4846123;29;20138;-84
2023/08/23 00:16:24;;;;;;;2.70;2.33;;;16.30;99.90;;;;;;4826354;29;20041;-84
2023/08/23 00:18:50;;;;;;;2.63;1.95;;;16.20;99.90;;;;;;4827272;29;20073;-84
2023/08/23 00:21:16;;;;;;;3.50;2.20;;;16.20;99.90;;;;;;4834889;29;20053;-84
2023/08/23 00:23:42;;;;;;;3.95;2.83;;;16.10;99.90;;;;;;4825499;29;20105;-85
2023/08/23 00:26:08;;;;;;;5.30;3.20;;;16.10;99.90;;;;;;4824167;29;20046;-85
2023/08/23 00:28:33;;;;;;;5.45;3.58;;;16.10;99.90;;;;;;4831291;29;20041;-83
2023/08/23 00:30:59;;;;;;;5.55;3.90;;;16.10;99.90;;;;;;4842214;29;20049;-84
2023/08/23 00:33:25;;;;;;;6.38;3.33;;;16.10;99.90;;;;;;4825625;29;20475;-83
2023/08/23 00:35:50;;;;;;;6.25;4.25;;;16.10;99.90;;;;;;4812338;29;20045;-84
2023/08/23 00:38:16;;;;;;;4.43;3.58;;;16.10;99.90;;;;;;4810677;29;20081;-84
2023/08/23 00:40:42;;;;;;;5.82;3.60;;;16.10;99.90;;;;;;4785090;29;20042;-84
2023/08/23 00:43:08;;;;;;;4.67;3.97;;;16.10;99.90;;;;;;4806915;29;20041;-84
2023/08/23 00:45:39;;;;;;;5.35;3.92;;;16.10;99.90;;;;;;4833655;29;20409;-85
2023/08/23 00:48:05;;;;;;;5.30;4.10;;;16.10;99.90;;;;;;4842261;29;20498;-85
2023/08/23 00:50:32;;;;;;;5.53;4.00;;;16.10;99.90;;;;;;4844548;29;20120;-84
2023/08/23 00:52:59;;;;;;;5.53;4.05;;;16.10;99.90;;;;;;4827286;29;20547;-85
2023/08/23 00:55:25;;;;;;;5.15;3.97;;;16.10;99.90;;;;;;4799697;29;20124;-84
2023/08/23 00:57:52;;;;;;;7.82;4.53;;;16.10;99.90;;;;;;4805994;29;20125;-85
2023/08/23 01:00:18;;;;;;;5.57;4.68;;;16.10;99.90;;;;;;4830968;29;20037;-85
2023/08/23 01:02:44;;;;;;;6.63;4.10;;;16.10;99.90;;;;;;4843907;29;20435;-86
2023/08/23 01:05:11;;;;;;;5.82;4.75;;;16.10;99.90;;;;;;4842158;29;20057;-84
2023/08/23 01:07:59;;;;;;;6.00;4.25;;;16.10;99.90;;;;;;4820663;29;20141;-85
2023/08/23 01:10:32;;;;;;;;;;;16.10;99.90;;;;;;4843733;29;20052;-84
2023/08/23 01:13:11;;;;;;;5.43;4.50;;;16.10;99.90;;;;;;4828039;29;19926;-85
2023/08/23 01:15:37;;;;;;;5.03;4.05;;;16.10;99.90;;;;;;4829742;29;20523;-85
2023/08/23 01:18:03;;;;;;;5.97;4.50;;;16.10;99.90;;;;;;4797850;29;20041;-86
2023/08/23 01:20:30;;;;;;;6.55;4.97;;;16.10;99.90;;;;;;4813368;29;20068;-86
2023/08/23 01:23:29;;;;;;;5.55;4.40;;;16.10;99.90;;;;;;4809332;29;20048;-87
2023/08/23 01:25:54;;;;;;;5.88;4.65;;;16.00;99.90;;;;;;4811538;29;20087;-87
2023/08/23 01:28:21;;;;;;;5.05;4.05;;;16.10;99.90;;;;;;4835653;29;20077;-87
2023/08/23 01:30:48;;;;;;;6.13;4.97;;;16.10;99.90;;;;;;4846076;29;20813;-86
2023/08/23 01:33:46;;;;;;;5.78;4.60;;;16.10;99.90;;;;;;4822374;29;20042;-87
2023/08/23 01:36:26;;;;;;;7.07;4.60;;;16.00;99.90;;;;;;4840101;29;20060;-87
2023/08/23 01:38:53;;;;;;;5.78;4.72;;;16.00;99.90;;;;;;4830219;29;20399;-87
2023/08/23 01:41:19;;;;;;;5.90;4.90;;;16.00;99.90;;;;;;4827511;29;20095;-87
2023/08/23 01:43:46;;;;;;;6.45;4.50;;;16.00;99.90;;;;;;4812151;29;20505;-87
2023/08/23 01:46:11;;;;;;;6.38;4.65;;;16.00;99.90;;;;;;4828098;29;20155;-87
2023/08/23 01:48:37;;;;;;;6.13;4.88;;;16.00;99.90;;;;;;4838902;29;20049;-87
2023/08/23 01:51:03;;;;;;;7.40;5.38;;;16.00;99.90;;;;;;4823066;29;20399;-87
2023/08/23 01:53:29;;;;;;;6.13;4.88;;;16.00;99.90;;;;;;4833630;29;20553;-87
2023/08/23 01:55:54;;;;;;;7.25;4.88;;;16.00;99.90;;;;;;4827516;29;20041;-86
2023/08/23 01:58:20;;;;;;;4.82;4.22;;;16.00;99.90;;;;;;4795430;29;20060;-86
2023/08/23 02:00:49;;;;;;;5.70;5.03;;;16.00;99.90;;;;;;4806865;29;20057;-87
2023/08/23 02:03:14;;;;;;;5.65;4.25;;;15.90;99.90;;;;;;4812045;29;20037;-88
2023/08/23 02:05:40;;;;;;;4.80;4.30;;;15.90;99.90;;;;;;4824848;29;20053;-87
2023/08/23 02:08:06;;;;;;;5.88;4.43;;;15.90;99.90;;;;;;4823427;29;20524;-87
2023/08/23 02:10:32;;;;;;;6.25;4.25;;;15.80;99.90;;;;;;4829138;29;20053;-87
2023/08/23 02:12:57;;;;;;;5.65;4.97;;;15.80;99.90;;;;;;4809839;29;20148;-88
2023/08/23 02:15:23;;;;;;;5.28;4.72;;;15.80;99.90;;;;;;4829831;29;20075;-87
2023/08/23 02:17:51;;;;;;;6.22;5.07;;;15.80;99.90;;;;;;4830110;29;20408;-88
2023/08/23 02:20:17;;;;;;;6.63;5.32;;;15.80;99.90;;;;;;4853605;29;20041;-87
2023/08/23 02:22:43;;;;;;;7.85;4.65;;;15.80;99.90;;;;;;4832172;29;20837;-88
2023/08/23 02:25:08;;;;;;;5.97;4.85;;;15.80;99.90;;;;;;4828634;29;20384;-88
2023/08/23 02:27:34;;;;;;;9.13;5.05;;;15.80;99.90;;;;;;4826283;29;20042;-88
2023/08/23 02:30:00;;;;;;;5.22;4.72;;;15.80;99.90;;;;;;4807222;29;20085;-87
2023/08/23 02:32:26;;;;;;;6.15;4.75;;;15.80;99.90;;;;;;4814292;29;20486;-86
2023/08/23 02:34:51;;;;;;;6.90;5.20;;;15.80;99.90;;;;;;4813890;29;20094;-88
2023/08/23 02:37:17;;;;;;;6.40;5.32;;;15.70;99.90;;;;;;4816997;29;20129;-87
2023/08/23 02:39:43;;;;;;;6.30;4.93;;;15.70;99.90;;;;;;4844507;29;20071;-87
2023/08/23 02:42:09;;;;;;;8.23;5.40;;;15.70;99.90;;;;;;4800812;29;20041;-89
2023/08/23 02:44:34;;;;;;;7.55;5.88;;;15.70;99.90;;;;;;4824132;29;20088;-89
2023/08/23 02:47:00;;;;;;;8.23;6.55;;;15.70;99.90;;;;;;4814886;29;20045;-88
2023/08/23 02:49:26;;;;;;;7.38;5.93;;;15.70;99.90;;;;;;4796162;29;20045;-89
2023/08/23 02:51:51;;;;;;;7.63;5.72;;;15.60;99.90;;;;;;4827101;29;20064;-86
2023/08/23 02:54:17;;;;;;;7.78;5.40;;;15.60;99.90;;;;;;4806311;29;20112;-86
2023/08/23 02:56:43;;;;;;;8.73;6.32;;;15.60;99.90;;;;;;4832994;29;20052;-87
2023/08/23 02:59:09;;;;;;;7.20;5.17;;;15.60;99.90;;;;;;4840670;29;20044;-86
2023/08/23 03:01:35;;;;;;;7.72;5.93;;;15.60;99.90;;;;;;4819491;29;20485;-88
2023/08/23 03:04:00;;;;;;;11.65;6.60;;;15.60;99.90;;;;;;4827936;29;20041;-88
2023/08/23 03:06:26;;;;;;;6.38;5.78;;;15.60;99.90;;;;;;4799882;29;20827;-88
2023/08/23 03:08:52;;;;;;;6.00;5.50;;;15.60;99.90;;;;;;4842957;29;20125;-88
2023/08/23 03:11:18;;;;;;;6.90;5.32;;;15.50;99.90;;;;;;4827459;29;20405;-86
2023/08/23 03:13:43;;;;;;;7.63;6.00;;;15.50;99.90;;;;;;4838767;29;20110;-87
2023/08/23 03:16:09;;;;;;;8.05;6.38;;;15.50;99.90;;;;;;4845351;29;20053;-86
2023/08/23 03:18:35;;;;;;;8.40;5.95;;;15.50;99.90;;;;;;4829885;29;20105;-87
2023/08/23 03:21:01;;;;;;;7.93;6.40;;;15.50;99.90;;;;;;4825450;29;20057;-87
2023/08/23 03:23:26;;;;;;;6.43;5.63;;;15.60;99.90;;;;;;4829369;29;20829;-87
2023/08/23 03:25:52;;;;;;;7.90;6.10;;;15.60;99.90;;;;;;4812947;29;20098;-88
2023/08/23 03:28:18;;;;;;;9.15;5.55;;;15.60;99.90;;;;;;4829360;29;20076;-87
2023/08/23 03:30:44;;;;;;;7.60;6.50;;;15.60;99.90;;;;;;4828637;29;20136;-87
2023/08/23 03:33:09;;;;;;;7.88;6.03;;;15.70;99.90;;;;;;4810810;29;20067;-88
2023/08/23 03:35:35;;;;;;;7.10;5.65;;;15.70;99.90;;;;;;4831643;29;20049;-90
2023/08/23 03:38:01;;;;;;;6.40;5.28;;;15.70;99.90;;;;;;4811638;29;20049;-89
2023/08/23 03:40:27;;;;;;;6.55;4.88;;;15.70;99.90;;;;;;4816079;29;20088;-89
2023/08/23 03:42:53;;;;;;;5.43;4.60;;;15.70;99.90;;;;;;4814103;29;20045;-89
2023/08/23 03:45:19;;;;;;;6.00;4.60;;;15.70;99.90;;;;;;4829493;29;20046;-87
2023/08/23 03:47:45;;;;;;;5.50;4.55;;;15.70;99.90;;;;;;4827771;29;20042;-87
2023/08/23 03:50:11;;;;;;;6.07;5.35;;;15.70;99.90;;;;;;4841772;29;20052;-90
2023/08/23 03:52:37;;;;;;;9.55;6.90;;;15.70;99.90;;;;;;4813028;29;20053;-87
2023/08/23 03:55:03;;;;;;;9.80;7.53;;;15.60;99.90;;;;;;4814702;29;20168;-90
2023/08/23 03:57:29;;;;;;;10.20;7.78;;;15.60;99.90;;;;;;4813662;29;20084;-90
2023/08/23 03:59:55;;;;;;;6.70;6.00;;;15.70;99.90;;;;;;4825431;29;20137;-93
2023/08/23 04:02:21;;;;;;;7.30;6.00;;;15.70;99.90;;;;;;4827536;29;20533;-86
2023/08/23 04:04:46;;;;;;;6.03;5.43;;;15.70;99.90;;;;;;4822306;29;20088;-87
2023/08/23 04:07:15;;;;;;;6.00;5.40;;;15.70;99.90;;;;;;4830325;29;20061;-86
2023/08/23 04:09:40;;;;;;;7.25;6.55;;;15.70;99.90;;;;;;4829476;29;20101;-89
2023/08/23 04:12:07;;;;;;;8.55;7.10;;;15.70;99.90;;;;;;4845314;29;20041;-91
2023/08/23 04:14:33;;;;;;;8.45;7.57;;;15.70;99.90;;;;;;4844130;29;20077;-90
2023/08/23 04:16:59;;;;;;;11.75;8.18;;;15.70;99.90;;;;;;4830583;29;20506;-89
2023/08/23 04:19:26;;;;;;;8.60;6.78;;;15.70;99.90;;;;;;4800624;29;20086;-91
2023/08/23 04:21:51;;;;;;;9.30;5.75;;;15.70;99.90;;;;;;4798914;29;20121;-89
2023/08/23 04:24:17;;;;;;;7.30;6.30;;;15.80;99.90;;;;;;4814321;29;20124;-92
2023/08/23 04:26:43;;;;;;;9.73;6.15;;;15.80;99.90;;;;;;4815057;29;20064;-87
2023/08/23 04:29:09;;;;;;;8.07;5.72;;;15.80;99.90;;;;;;4831865;29;20418;-86
2023/08/23 04:31:35;;;;;;;8.50;6.78;;;15.80;99.90;;;;;;4814815;29;20041;-87
2023/08/23 04:34:02;;;;;;;7.70;6.57;;;15.80;99.90;;;;;;4823343;29;20080;-86
2023/08/23 04:36:28;;;;;;;9.18;6.75;;;15.90;99.90;;;;;;4814893;29;20041;-85
2023/08/23 04:38:54;;;;;;;9.13;6.70;;;15.90;99.90;;;;;;4842498;29;20553;-86
2023/08/23 04:41:20;;;;;;;7.55;6.10;;;15.90;99.90;;;;;;4837816;29;20054;-88
2023/08/23 04:43:45;;;;;;;8.30;6.05;;;15.90;99.90;;;;;;4836559;29;20462;-86
2023/08/23 04:46:11;;;;;;;9.00;6.63;;;15.90;99.90;;;;;;4823335;29;20406;-86
2023/08/23 04:48:37;;;;;;;7.45;6.35;;;15.90;99.90;;;;;;4796596;29;20110;-86
2023/08/23 04:51:08;;;;;;;8.45;6.70;;;15.90;99.90;;;;;;4826202;29;20057;-87
2023/08/23 04:53:34;;;;;;;7.35;5.63;;;15.90;99.90;;;;;;4829600;29;20113;-86
2023/08/23 04:56:00;;;;;;;8.50;6.13;;;15.90;99.90;;;;;;4845005;29;20649;-86
2023/08/23 04:58:32;;;;;;;6.97;6.25;;;15.90;99.90;;;;;;4834229;29;20049;-85
2023/08/23 05:01:05;;;;;;;9.00;7.07;;;15.90;99.90;;;;;;4855647;29;20037;-86
2023/08/23 05:03:35;;;;;;;9.40;6.20;;;15.90;99.90;;;;;;4836156;29;20063;-85
2023/08/23 05:06:02;;;;;;;8.82;6.95;;;15.90;99.90;;;;;;4839319;29;20053;-84
2023/08/23 05:08:29;;;;;;;10.18;6.85;;;16.00;99.90;;;;;;4824001;29;20519;-86
2023/08/23 05:10:55;;;;;;;8.27;7.13;;;15.90;99.90;;;;;;4837317;29;20050;-93
2023/08/23 05:13:22;;;;;;;11.25;8.10;;;16.00;99.90;;;;;;4810640;29;20046;-90
2023/08/23 05:15:52;;;;;;;10.60;7.53;;;16.00;99.90;;;;;;4820907;29;20405;-86
2023/08/23 05:18:18;;;;;;;9.43;6.95;;;16.00;99.90;;;;;;4854634;29;20085;-86
2023/08/23 05:20:44;;;;;;;11.45;8.38;;;16.10;99.90;;;;;;4831457;29;20060;-86
2023/08/23 05:23:09;;;;;;;10.70;7.93;;;16.10;99.90;;;;;;4827235;29;20615;-89
2023/08/23 05:25:35;;;;;;;8.70;7.75;;;16.10;99.90;;;;;;4828514;29;20673;-86
2023/08/23 05:28:01;;;;;;;9.65;7.85;;;16.20;99.90;;;;;;4846828;29;20041;-92
2023/08/23 05:30:26;;;;;;;10.70;7.80;;;16.20;99.90;;;;;;4804436;29;20045;-84
2023/08/23 05:32:52;;;;;;;10.80;7.75;;;16.20;99.90;;;;;;4800566;29;20521;-85
2023/08/23 05:35:18;;;;;;;9.82;8.43;;;16.30;99.90;;;;;;4812224;29;20057;-87
2023/08/23 05:37:43;;;;;;;9.57;7.68;;;16.30;99.90;;;;;;4798642;29;20045;-89
2023/08/23 05:40:09;;;;;;;10.68;8.57;;;16.30;99.90;;;;;;4826586;29;20507;-86
2023/08/23 05:42:35;;;;;;;11.23;8.38;;;16.40;99.90;;;;;;4838184;29;20053;-86
2023/08/23 05:45:01;;;;;;;9.77;7.72;;;16.30;99.90;;;;;;4843615;29;20052;-90
2023/08/23 05:47:27;;;;;;;9.05;7.93;;;16.40;99.90;;;;;;4825965;29;20170;-86
2023/08/23 05:49:53;;;;;;;9.27;8.07;;;16.30;99.90;;;;;;4806709;29;20056;-89
2023/08/23 05:52:19;;;;;;;9.63;7.40;;;16.40;99.90;;;;;;4796966;29;20046;-86
2023/08/23 05:54:45;;;;;;;11.80;8.20;;;16.10;99.90;;;;;;4828212;29;20182;-83
2023/08/23 05:57:10;;;;;;;9.18;7.82;;;16.40;99.90;;;;;;4799392;29;20494;-84
2023/08/23 05:59:36;;;;;;;9.45;8.40;;;16.50;99.90;;;;;;4819205;29;20046;-87
2023/08/23 06:02:02;;;;;;;9.13;8.13;;;16.50;99.90;;;;;;4813336;29;20049;-87
2023/08/23 06:04:28;;;;;;;10.40;8.15;;;16.60;99.90;;;;;;4797139;29;20485;-84
2023/08/23 06:06:54;;;;;;;8.83;7.37;;;16.70;99.90;;;;;;4819204;29;20041;-83
2023/08/23 06:09:19;;;;;;;11.15;8.20;;;16.80;99.90;;;;;;4840548;29;20508;-85
2023/08/23 06:11:45;;;;;;;9.15;7.30;;;17.10;99.90;;;;;;4829955;29;20513;-84
2023/08/23 06:14:23;;;;;;;11.85;8.02;;;17.30;99.90;;;;;;4833401;29;20574;-83
2023/08/23 06:16:49;;;;;;;;;;;17.50;99.90;;;;;;4829173;29;20049;-84
2023/08/23 06:19:15;;;;;;;9.30;7.88;;;17.70;99.90;;;;;;4832090;29;19920;-86
2023/08/23 06:21:44;;;;;;;9.70;7.53;;;17.90;99.90;;;;;;4845447;29;20048;-82
2023/08/23 06:24:10;;;;;;;8.43;7.28;;;18.10;99.90;;;;;;4815335;29;20042;-83
2023/08/23 06:26:36;;;;;;;9.98;7.18;;;18.30;99.90;;;;;;4831745;29;20045;-84
2023/08/23 06:29:03;;;;;;;10.38;8.00;;;18.50;99.90;;;;;;4833896;29;20077;-82
2023/08/23 06:31:29;;;;;;;8.48;6.90;;;18.60;99.90;;;;;;4829685;29;20383;-84
2023/08/23 06:33:55;;;;;;;8.57;7.20;;;18.70;99.90;;;;;;4816831;29;20850;-83
2023/08/23 06:36:21;;;;;;;8.63;7.18;;;19.00;99.90;;;;;;4845782;29;20481;-82
2023/08/23 06:38:47;;;;;;;8.02;7.10;;;19.10;99.90;;;;;;4831386;29;20102;-82
2023/08/23 06:41:13;;;;;;;10.07;7.72;;;19.20;99.90;;;;;;4829148;29;20493;-89
2023/08/23 06:43:38;;;;;;;9.32;8.02;;;19.10;99.90;;;;;;4829863;29;20427;-83
2023/08/23 06:46:04;;;;;;;8.65;7.30;;;18.90;99.90;;;;;;4812913;29;20153;-87
2023/08/23 06:48:30;;;;;;;9.02;7.68;;;18.90;99.90;;;;;;4813238;29;20399;-84
2023/08/23 06:50:58;;;;;;;7.68;6.88;;;19.20;99.90;;;;;;4858616;29;20133;-82
2023/08/23 06:53:24;;;;;;;7.88;6.85;;;20.20;99.90;;;;;;4844462;29;20053;-83
2023/08/23 06:55:50;;;;;;;8.48;5.97;;;21.50;99.90;;;;;;4823924;29;20816;-83
2023/08/23 06:58:15;;;;;;;9.27;5.65;;;22.50;99.90;;;;;;4814275;29;20101;-84
2023/08/23 07:00:41;;;;;;;6.22;4.80;;;23.80;99.90;;;;;;4822726;29;20049;-81
2023/08/23 07:03:07;;;;;;;4.82;4.32;;;24.30;99.90;;;;;;4828415;29;20080;-83
2023/08/23 07:05:34;;;;;;;5.90;5.20;;;25.10;99.90;;;;;;4825982;29;20616;-83
2023/08/23 07:08:00;;;;;;;6.32;5.20;;;25.70;99.90;;;;;;4819926;29;20506;-82
2023/08/23 07:10:25;;;;;;;7.30;6.17;;;26.20;99.90;;;;;;4809812;29;20054;-85
2023/08/23 07:12:51;;;;;;;6.20;5.53;;;26.70;99.90;;;;;;4799268;29;20122;-84
2023/08/23 07:15:17;;;;;;;6.20;5.50;;;27.20;99.90;;;;;;4833218;29;20053;-85
2023/08/23 07:17:43;;;;;;;6.35;5.63;;;27.50;99.90;;;;;;4846654;29;20049;-84
2023/08/23 07:20:12;;;;;;;6.47;5.00;;;27.80;99.90;;;;;;4812589;29;20056;-83
2023/08/23 07:22:37;;;;;;;6.25;5.40;;;28.10;99.90;;;;;;4831948;29;20050;-82
2023/08/23 07:25:03;;;;;;;5.80;5.07;;;28.40;99.90;;;;;;4815118;29;20102;-85
2023/08/23 07:27:29;;;;;;;6.37;5.63;;;28.30;99.90;;;;;;4810168;29;21066;-83
2023/08/23 07:29:55;;;;;;;5.70;5.10;;;28.40;99.90;;;;;;4816449;29;21067;-82
2023/08/23 07:32:20;;;;;;;6.03;4.93;;;28.60;99.90;;;;;;4813671;29;20046;-82
2023/08/23 07:34:46;;;;;;;4.63;3.93;;;28.80;99.90;;;;;;4828966;29;20077;-83
2023/08/23 07:37:12;;;;;;;5.57;5.07;;;29.10;99.90;;;;;;4817711;29;20526;-83
2023/08/23 07:39:38;;;;;;;4.40;3.93;;;29.30;99.90;;;;;;4829037;29;20084;-82
2023/08/23 07:42:03;;;;;;;5.60;3.90;;;29.60;99.90;;;;;;4815308;29;20046;-82
2023/08/23 07:44:29;;;;;;;5.77;4.67;;;29.90;99.90;;;;;;4839695;29;20098;-85
2023/08/23 07:46:55;;;;;;;5.23;3.77;;;30.00;99.90;;;;;;4807540;29;20034;-81
2023/08/23 07:49:21;;;;;;;5.33;4.40;;;30.10;99.90;;;;;;4814755;29;20592;-83
2023/08/23 07:51:48;;;;;;;4.97;3.80;;;30.20;99.90;;;;;;4827402;29;20060;-83
2023/08/23 07:54:13;;;;;;;5.00;3.25;;;30.40;99.90;;;;;;4841924;29;20046;-86
2023/08/23 07:56:39;;;;;;;5.57;3.28;;;30.50;99.90;;;;;;4824322;29;20548;-85
2023/08/23 07:59:05;;;;;;;4.27;3.23;;;30.10;99.90;;;;;;4825724;29;20046;-85
2023/08/23 08:01:30;;;;;;;4.13;2.80;;;29.70;99.90;;;;;;4810762;29;20538;-89
2023/08/23 08:03:56;;;;;;;4.33;2.97;;;29.40;99.90;;;;;;4812237;29;20638;-83
2023/08/23 08:06:22;;;;;;;3.80;3.30;;;29.30;99.90;;;;;;4843629;29;20117;-83
2023/08/23 08:08:47;;;;;;;4.07;2.80;;;28.70;99.90;;;;;;4827566;29;20049;-84
2023/08/23 08:11:15;;;;;;;6.70;2.67;;;28.20;99.90;;;;;;4828812;29;20485;-85
2023/08/23 08:13:41;;;;;;;3.88;2.63;;;28.10;99.90;;;;;;4841783;29;20475;-82
2023/08/23 08:16:12;;;;;;;2.80;2.53;;;27.60;99.90;;;;;;4811169;29;20788;-83
2023/08/23 08:18:39;;;;;;;5.47;2.90;;;27.40;99.90;;;;;;4828836;29;20037;-82
2023/08/23 08:21:05;;;;;;;3.38;2.53;;;27.70;99.90;;;;;;4830615;29;20045;-82
2023/08/23 08:23:32;;;;;;;3.53;2.88;;;28.30;99.90;;;;;;4828252;29;20402;-82
2023/08/23 08:25:57;;;;;;;;;;;28.80;99.90;;;;;;4828452;29;20054;-82
2023/08/23 08:28:23;;;;;;;4.45;2.88;;;29.20;99.90;;;;;;4840579;29;19924;-84
2023/08/23 08:30:49;;;;;;;3.85;2.60;;;29.50;99.90;;;;;;4830249;29;20132;-83
2023/08/23 08:33:16;;;;;;;4.97;2.70;;;29.60;99.90;;;;;;4823262;29;20081;-87
2023/08/23 08:35:43;;;;;;;3.67;2.70;;;29.50;99.90;;;;;;4810484;29;20756;-83
2023/08/23 08:38:08;;;;;;;3.50;2.42;;;29.40;99.90;;;;;;4841220;29;20045;-82
2023/08/23 08:40:37;;;;;;;3.80;2.50;;;29.50;99.90;;;;;;4827467;29;20052;-82
2023/08/23 08:43:02;;;;;;;4.50;2.63;;;29.60;99.90;;;;;;4845929;29;20077;-82
2023/08/23 08:45:29;;;;;;;4.03;2.58;;;29.60;99.90;;;;;;4843410;29;20069;-83
2023/08/23 08:47:54;;;;;;;3.63;2.90;;;29.60;99.90;;;;;;4819303;29;20037;-83
2023/08/23 08:50:20;;;;;;;4.80;2.72;;;29.70;99.90;;;;;;4829439;29;20064;-81
2023/08/23 08:52:51;;;;;;;3.93;2.30;;;29.60;99.90;;;;;;4813024;29;20179;-82
2023/08/23 08:55:22;;;;;;;5.32;2.50;;;29.50;99.90;;;;;;4848928;29;20109;-82
2023/08/23 08:57:52;;;;;;;3.05;2.08;;;29.20;99.90;;;;;;4827459;29;20049;-83
2023/08/23 09:00:21;;;;;;;3.42;2.40;;;28.60;99.90;;;;;;4828259;29;20049;-84
2023/08/23 09:02:50;;;;;;;3.40;2.22;;;27.70;99.90;;;;;;4828041;29;20046;-87
2023/08/23 09:05:18;;;;;;;3.50;2.60;;;26.30;99.90;;;;;;4827302;29;20041;-81
2023/08/23 09:07:43;;;;;;;3.47;2.72;;;26.30;99.90;;;;;;4820535;29;20092;-83
2023/08/23 09:10:10;;;;;;;3.65;2.42;;;25.80;99.90;;;;;;4816777;29;20770;-83
2023/08/23 09:12:36;;;;;;;11.38;2.90;;;25.50;99.90;;;;;;4837487;29;20443;-83
2023/08/23 09:15:06;;;;;;;4.95;2.45;;;25.40;99.90;;;;;;4810134;29;20046;-82
2023/08/23 09:17:36;;;;;;;3.20;2.45;;;25.30;99.90;;;;;;4843414;29;20470;-85
2023/08/23 09:20:06;;;;;;;3.50;2.50;;;25.20;99.90;;;;;;4842641;29;20045;-84
2023/08/23 09:22:33;;;;;;;3.50;2.60;;;25.20;99.90;;;;;;4828327;29;20045;-83
2023/08/23 09:25:03;;;;;;;4.53;2.47;;;25.20;99.90;;;;;;4844955;29;20152;-82
2023/08/23 09:27:28;;;;;;;4.95;2.10;;;25.10;99.90;;;;;;4816944;29;20043;-84
2023/08/23 09:29:55;;;;;;;4.70;2.90;;;25.00;99.90;;;;;;4840301;29;20037;-85
2023/08/23 09:32:21;;;;;;;3.75;2.17;;;25.00;99.90;;;;;;4829350;29;20045;-81
2023/08/23 09:34:47;;;;;;;4.28;2.30;;;25.00;99.90;;;;;;4823842;29;20090;-82
2023/08/23 09:37:13;;;;;;;3.73;2.27;;;25.00;99.90;;;;;;4836844;29;20722;-83
2023/08/23 09:39:39;;;;;;;3.33;2.50;;;25.20;99.90;;;;;;4829195;29;20486;-87
2023/08/23 09:42:13;;;;;;;9.17;2.80;;;25.50;99.90;;;;;;4828492;29;20463;-81
2023/08/23 09:44:46;;;;;;;3.78;2.25;;;25.60;99.90;;;;;;4842320;29;20038;-81
2023/08/23 09:47:21;;;;;;;3.35;2.13;;;25.80;99.90;;;;;;4828648;29;20042;-85
2023/08/23 09:49:48;;;;;;;3.58;2.30;;;25.90;99.90;;;;;;4829332;29;20517;-82
2023/08/23 09:52:15;;;;;;;3.92;2.75;;;25.90;99.90;;;;;;4814213;29;20057;-81
2023/08/23 09:55:08;;;;;;;4.85;2.85;;;26.00;99.90;;;;;;4828141;29;20513;-85
2023/08/23 09:57:35;;;;;;;5.82;2.33;;;25.90;99.90;;;;;;4817279;29;20517;-82
2023/08/23 10:00:02;;;;;;;4.45;2.50;;;25.90;99.90;;;;;;4827421;29;20390;-82
2023/08/23 10:02:29;;;;;;;5.97;2.53;;;26.00;99.90;;;;;;4815296;29;20128;-81
2023/08/23 10:04:56;;;;;;;4.35;3.22;;;26.20;99.90;;;;;;4827011;29;20037;-90
2023/08/23 10:07:23;;;;;;;4.68;2.80;;;26.30;99.90;;;;;;4828916;29;20045;-83
2023/08/23 10:09:50;;;;;;;6.90;3.40;;;26.20;99.90;;;;;;4842372;29;20057;-86
2023/08/23 10:12:16;;;;;;;;;;;26.00;99.90;;;;;;4845177;29;20460;-84
2023/08/23 10:14:46;;;;;;;5.97;3.60;;;25.60;99.90;;;;;;4828018;29;19968;-85
2023/08/23 10:17:16;;;;;;;4.80;3.10;;;25.40;99.90;;;;;;4825977;29;20125;-88
2023/08/23 10:19:42;;;;;;;3.75;3.05;;;25.30;99.90;;;;;;4816985;29;20049;-83
2023/08/23 10:22:08;;;;;;;3.83;2.97;;;25.30;99.90;;;;;;4825389;29;20045;-84
2023/08/23 10:24:34;;;;;;;4.30;3.90;;;25.30;99.90;;;;;;4822486;29;20080;-85
2023/08/23 10:27:07;;;;;;;6.43;3.50;;;25.40;99.90;;;;;;4828540;29;20110;-85
2023/08/23 10:29:36;;;;;;;5.60;3.13;;;25.20;99.90;;;;;;4828941;29;20118;-84
2023/08/23 10:32:08;;;;;;;4.78;3.83;;;25.00;99.90;;;;;;4811068;29;20505;-84
2023/08/23 10:34:37;;;;;;;4.60;3.80;;;24.80;99.90;;;;;;4839662;29;20489;-84
2023/08/23 10:37:21;;;;;;;6.10;3.92;;;24.80;99.90;;;;;;4811754;29;20038;-88
2023/08/23 10:39:49;;;;;;;5.80;4.05;;;25.00;99.90;;;;;;4840521;29;20053;-83
2023/08/23 10:42:18;;;;;;;5.32;3.70;;;25.00;99.90;;;;;;4830139;29;20525;-85
2023/08/23 10:45:04;;;;;;;5.07;3.70;;;25.00;99.90;;;;;;4816977;29;20041;-84
2023/08/23 10:47:35;;;;;;;6.13;3.85;;;25.20;99.90;;;;;;4827151;29;20502;-86
2023/08/23 10:50:03;;;;;;;3.55;2.08;;;25.30;99.90;;;;;;4840689;29;20057;-82
2023/08/23 10:52:30;;;;;;;3.53;2.10;;;25.50;99.90;;;;;;4840609;29;20379;-82
2023/08/23 10:54:57;;;;;;;4.32;2.20;;;25.70;99.90;;;;;;4841660;29;20721;-86
2023/08/23 10:57:22;;;;;;;4.25;2.63;;;25.90;99.90;;;;;;4840653;29;20391;-84
2023/08/23 10:59:48;;;;;;;3.77;2.00;;;26.10;99.90;;;;;;4840909;29;20044;-82
2023/08/23 11:02:15;;;;;;;4.00;1.80;;;26.20;99.90;;;;;;4831845;29;20060;-83
2023/08/23 11:04:42;;;;;;;2.88;1.63;;;26.40;99.90;;;;;;4822922;29;20524;-87
2023/08/23 11:07:08;;;;;;;6.80;1.88;;;26.50;99.90;;;;;;4830580;29;20037;-84
2023/08/23 11:09:35;;;;;;;2.95;1.63;;;26.60;99.90;;;;;;4832777;29;20106;-84
2023/08/23 11:12:03;;;;;;;2.53;1.90;;;26.70;99.90;;;;;;4827643;29;20224;-83
2023/08/23 11:14:29;;;;;;;2.78;1.70;;;26.70;99.90;;;;;;4830654;29;20401;-81
2023/08/23 11:16:55;;;;;;;4.55;1.80;;;26.70;99.90;;;;;;4810796;29;20041;-81
2023/08/23 11:19:21;;;;;;;2.47;1.90;;;26.70;99.90;;;;;;4831203;29;20045;-82
2023/08/23 11:21:47;;;;;;;3.20;1.90;;;26.60;99.90;;;;;;4813883;29;20765;-87
2023/08/23 11:24:13;;;;;;;3.43;1.77;;;26.60;99.90;;;;;;4829148;29;20983;-82
2023/08/23 11:26:39;;;;;;;3.00;1.90;;;26.70;99.90;;;;;;4827314;29;20045;-85
2023/08/23 11:29:05;;;;;;;2.77;1.70;;;26.70;99.90;;;;;;4815227;29;20466;-83
2023/08/23 11:31:35;;;;;;;4.57;1.45;;;26.80;99.90;;;;;;4830005;29;20042;-83
2023/08/23 11:34:06;;;;;;;3.70;1.70;;;26.90;99.90;;;;;;4830677;29;20045;-85
2023/08/23 11:36:33;;;;;;;4.03;1.67;;;26.70;99.90;;;;;;4844891;29;20074;-85
2023/08/23 11:39:07;;;;;;;2.13;1.60;;;26.60;99.90;;;;;;4820011;29;20051;-85
2023/08/23 11:41:34;;;;;;;2.78;1.60;;;26.60;99.90;;;;;;4844487;29;20128;-84
2023/08/23 11:44:06;;;;;;;3.63;1.63;;;26.60;99.90;;;;;;4847989;29;20102;-85
2023/08/23 11:46:40;;;;;;;2.92;1.15;;;26.60;99.90;;;;;;4811045;29;20125;-84
2023/08/23 11:49:07;;;;;;;1.90;1.10;;;26.60;99.90;;;;;;4829961;29;20128;-87
2023/08/23 11:51:50;;;;;;;3.85;0.95;;;26.70;99.90;;;;;;4845613;29;20053;-86
2023/08/23 11:54:17;;;;;;;1.55;0.90;;;26.70;99.90;;;;;;4841241;29;20046;-82
2023/08/23 11:56:44;;;;;;;1.92;0.80;;;26.60;99.90;;;;;;4835371;29;20085;-83
2023/08/23 11:59:13;;;;;;;2.13;0.80;;;26.50;99.90;;;;;;4826319;29;20045;-86
2023/08/23 12:01:42;;;;;;;3.60;1.10;;;26.50;99.90;;;;;;4832228;29;20052;-85
2023/08/23 12:04:10;;;;;;;4.78;1.17;;;26.40;99.90;;;;;;4824064;29;20041;-85
2023/08/23 12:06:36;;;;;;;3.72;0.93;;;26.20;99.90;;;;;;4838303;29;20077;-84
2023/08/23 12:09:03;;;;;;;4.03;0.85;;;25.90;99.90;;;;;;4829677;29;20097;-84
2023/08/23 12:11:32;;;;;;;3.03;0.98;;;25.70;99.90;;;;;;4823557;29;20061;-83
2023/08/23 12:14:03;;;;;;;2.00;1.00;;;25.60;99.90;;;;;;4837594;29;20084;-83
2023/08/23 12:16:30;;;;;;;1.83;0.70;;;25.60;99.90;;;;;;4845021;29;20127;-84
2023/08/23 12:18:56;;;;;;;2.05;0.60;;;25.60;99.90;;;;;;4846359;29;20080;-86
2023/08/23 12:21:22;;;;;;;3.17;0.68;;;25.60;99.90;;;;;;4817142;29;20466;-83
2023/08/23 12:23:48;;;;;;;4.38;0.50;;;25.60;99.90;;;;;;4827773;29;20037;-83
2023/08/23 12:26:14;;;;;;;1.37;0.60;;;25.60;99.90;;;;;;4846956;29;20109;-84
2023/08/23 12:28:40;;;;;;;1.77;0.70;;;25.60;99.90;;;;;;4797613;29;20103;-83
2023/08/23 12:31:05;;;;;;;3.83;0.63;;;25.60;99.90;;;;;;4803129;29;20050;-81
2023/08/23 12:33:31;;;;;;;2.43;0.50;;;25.60;99.90;;;;;;4817864;29;20097;-83
2023/08/23 12:35:57;;;;;;;1.37;0.30;;;25.60;99.90;;;;;;4828714;29;20045;-82
2023/08/23 12:38:22;;;;;;;2.20;0.50;;;25.60;99.90;;;;;;4812223;29;20052;-82
2023/08/23 12:40:48;;;;;;;1.67;0.60;;;25.60;99.90;;;;;;4827624;29;20080;-83
2023/08/23 12:43:14;;;;;;;1.90;0.57;;;25.50;99.90;;;;;;4825087;29;20053;-82
2023/08/23 12:45:40;;;;;;;1.57;0.60;;;25.50;99.90;;;;;;4829845;29;20048;-83
2023/08/23 12:48:08;;;;;;;1.77;0.53;;;25.40;99.90;;;;;;4829419;29;20037;-82